KCPU

Calaveras Co-Maury Rasmussen Field Airport

San Andreas, California, USA
METAR KCPU 222110Z AUTO 34009G14KT 10SM CLR 24/04 A2990 RMK AO2 T02410035
Observed Flight Rules
Oct-22 @ 21:10 UTC (30 minutes ago) Visual Flight Rules
Wind Visibility Clouds
340° at 9 knots
 Gusting to 14 knots
10 miles
  • Clear skies
Temperatures Readings
Current 24°C / 75°F
Dewpoint 4°C / 39°F
Humidity 27%
Altimeter 29.9" Hg
Pressure 1013 hPa
Elevation 404
METAR KCPU 222110Z AUTO 34009G14KT 10SM CLR 24/04 A2990 RMK AO2 T02410035
Observed Flight Rules
Oct-22 @ 21:10 UTC
(30 minutes ago)
VFR
Wind Visibility
340° at 9 knots
 Gusting to 14 knots
10 miles
Clouds
  • Clear skies
Temperature Dewpoint
24°C / 75°F 4°C / 39°F
Humidity Altimeter Pressure
27% 29.9" Hg 1013 hPa